Peleus — V2FV2 — position and weather

sailwx.info

Track history (hours):
 
Tides and Currents Weather Stations Pressure Air Temp Water Temp Dewpoint Dewpoint Depression Visibility Wind Speed Wind Dir Waves Ship Positions

Peleus

Last reported at 2017-Jul-10 23:50 UTC. Time now 2017-Jul-21 00:53 UTC.
Position N 39°46' E 024°54'.
Warning: this ship's position is 10 days out of date.

Length 88 m; draft 3.5 m.

Type: Ship. MMSI: 305810000.

Date/timePositionNaut miles runAvg speedWind from/ knotsBaromVisibWave heightAir tempDewpointWater temp
2017-Jul-10 23:50N 39°46' E 024°54'3 8.1
2017-Jul-10 23:28N 39°47' E 024°50'4 8.4
2017-Jul-10 22:59N 39°47' E 024°45'  
2017-Jul-03 19:13N 36°32' E 015°36'4 8.4
2017-Jul-03 18:46N 36°32' E 015°32'2 8.6
2017-Jul-03 18:29N 36°32' E 015°29'4 8.7
2017-Jul-03 18:00N 36°32' E 015°23'4 8.6
2017-Jul-03 17:30N 36°32' E 015°18'10 8.8
2017-Jul-03 16:23N 36°33' E 015°06'4 8.8
2017-Jul-03 15:56N 36°34' E 015°01'4 8.8
2017-Jul-03 15:30N 36°34' E 014°56'4 8.7
2017-Jul-03 15:00N 36°35' E 014°51'9 9.2
2017-Jul-03 13:59N 36°38' E 014°40'510.2
2017-Jul-03 13:29N 36°39' E 014°33'510.1
2017-Jul-03 13:00N 36°40' E 014°28'510.0
2017-Jul-03 12:30N 36°41' E 014°21'510.0
2017-Jul-03 12:00N 36°42' E 014°16'510.1
2017-Jul-03 11:30N 36°44' E 014°10'510.0
2017-Jul-03 11:00N 36°45' E 014°04'510.0
2017-Jul-03 10:30N 36°46' E 013°57'5 9.9
2017-Jul-03 10:00N 36°47' E 013°51'5 9.7
2017-Jul-03 09:30N 36°49' E 013°46'5 9.6
2017-Jul-03 09:00N 36°50' E 013°40'5 9.4
2017-Jul-03 08:30N 36°51' E 013°34'8 9.3
2017-Jul-03 07:36N 36°53' E 013°24'2 9.0
2017-Jul-03 07:20N 36°54' E 013°21'  
Track history (hours):
 
Tides and Currents Weather Stations Pressure Air Temp Water Temp Dewpoint Dewpoint Depression Visibility Wind Speed Wind Dir Waves Ship Positions

Peleus

Last reported at 2017-Jul-10 23:50 UTC. Time now 2017-Jul-21 00:53 UTC.
Position N 39°46' E 024°54'.
Warning: this ship's position is 10 days out of date.

Length 88 m; draft 3.5 m.

Type: Ship. MMSI: 305810000.

Date/timePositionNaut miles runAvg speedWind from/ knotsBaromVisibWave heightAir tempDewpointWater temp
2017-Jul-10 23:50N 39°46' E 024°54'3 8.1
2017-Jul-10 23:28N 39°47' E 024°50'4 8.4
2017-Jul-10 22:59N 39°47' E 024°45'  
2017-Jul-03 19:13N 36°32' E 015°36'4 8.4
2017-Jul-03 18:46N 36°32' E 015°32'2 8.6
2017-Jul-03 18:29N 36°32' E 015°29'4 8.7
2017-Jul-03 18:00N 36°32' E 015°23'4 8.6
2017-Jul-03 17:30N 36°32' E 015°18'10 8.8
2017-Jul-03 16:23N 36°33' E 015°06'4 8.8
2017-Jul-03 15:56N 36°34' E 015°01'4 8.8
2017-Jul-03 15:30N 36°34' E 014°56'4 8.7
2017-Jul-03 15:00N 36°35' E 014°51'9 9.2
2017-Jul-03 13:59N 36°38' E 014°40'510.2
2017-Jul-03 13:29N 36°39' E 014°33'510.1
2017-Jul-03 13:00N 36°40' E 014°28'510.0
2017-Jul-03 12:30N 36°41' E 014°21'510.0
2017-Jul-03 12:00N 36°42' E 014°16'510.1
2017-Jul-03 11:30N 36°44' E 014°10'510.0
2017-Jul-03 11:00N 36°45' E 014°04'510.0
2017-Jul-03 10:30N 36°46' E 013°57'5 9.9
2017-Jul-03 10:00N 36°47' E 013°51'5 9.7
2017-Jul-03 09:30N 36°49' E 013°46'5 9.6
2017-Jul-03 09:00N 36°50' E 013°40'5 9.4
2017-Jul-03 08:30N 36°51' E 013°34'8 9.3
2017-Jul-03 07:36N 36°53' E 013°24'2 9.0
2017-Jul-03 07:20N 36°54' E 013°21'  

Dump ship's entire track history